Aérodrome :
LOGIN :

S'inscrire | Disclaimer

   EN    FR    IT 

 










Légende :    VFR   VFR Marginal   IFR   IFR Intensif   IFR Très Intensif
Visi : 
Plafond : 
>= 8 km
>= 3000ft
5 à 8 km
1000 à 3000 ft
1500m à 5 km
500 à 1000 ft
800 à 1500m
200 à 500 ft
< 800m
< 200 ft
Symboles :   Orages  Brouillard  Fortes neiges  Fortes précipitations  Vent > 20 kt
SIGMETs :   Divers  Orages  Givrage  Turbulence  Onde Orograph.  Cendres Volcan.







- Altitude de l'aérodrome : 290 ft
- Code IATA : LAI
- Voir les cartes d'approche


LFRO - Lannion

DERNIER METAR :
  • 131630Z AUTO 28016KT 9999 FEW009/// BKN018/// BKN026/// ///TCU 09/08 Q1002 TEMPO 27020G30KT BECMG 4000 -RA BKN007 BKN015 OVC020

METARs EXPIRÉS :
  • 131600Z AUTO 28020G31KT 9999 SCT013/// BKN024/// OVC033/// ///TCU 10/08 Q1002 BECMG 4000 -RA BKN007 BKN015 OVC020
  • 131530Z AUTO 27017KT 9999 BKN014 BKN019 OVC056 11/09 Q1001 TEMPO 27020G30KT BECMG 4000 -RA BKN007 BKN015 OVC020
  • 131500Z AUTO 27018KT 9999 FEW010 BKN023 BKN034 10/09 Q1001 TEMPO 27020G30KT BECMG 4000 -RA BKN007 BKN015 OVC020
  • 131430Z AUTO 25016KT 3900 +RADZ BR OVC005 11/10 Q1001 TEMPO 27020G30KT
  • 131400Z AUTO 23012KT 5000 DZ BR BKN005/// OVC009/// 11/10 Q1001 TEMPO 27020G30KT SHRA

TAF TAF LFRO
Valide du 13 à 12h jusqu'au 14 à 12h UTC


131100Z 1312/1412 22014KT 4000 -RA BKN007 BKN015 OVC020
TEMPO 1312/1412 27020G30KT SHRA
TEMPO 1408/1412 27025G45KT TSRAGR BKN015CB
Pas de NOTAMs connus pour ce terrain.
2 SIGMETs publiés pour la FIR Brest (LFRR) :
 
Turbulence forte
LFRR SIGMET 2 VALID 131500/131900 LFPW
LFRR BREST FIR/UIR SEV TURB FCST WI N4800 W00800 - N4900 W00800 - N4930 W00530 - N4830 W00530 - N4800 W00800 SFC/FL060 MOV E 50KT NC=
Turbulence forte
LFRR SIGMET 1 VALID 131500/131900 LFPW
LFRR BREST FIR/UIR SEV TURB FCST WI N4400 W00400 - N4445 W00700 - N4815 W00430 - N4745 W00015 - N4630 W00015 - N4630 W00130 - N4445 W00145 - N4400 W00400 SFC/FL050 MOV E 40KT NC=



MET'MAP, la Météo Aéronautique d'un coup d'oeil ! - Copyright ORBIFLY Décembre 2007 - Disclaimer

ORBIFLY MET'MAP TEAM :

Programmation & Développement : Alexandra Zaïnal
Conception & Développement : Baudouin d'Aumeries
Co-Programmation & Développement : Marc-Olivier Méhu
Soutien technique & logistique : Manuel Goepfert

Contact : metmap@orbifly.com




SOURCES & CREDITS :

   NOAA